createdAt,value
2022-12-09T00:02:08.360Z,102168.47
2022-12-09T00:04:37.040Z,102152.53
2022-12-09T00:07:05.721Z,102150.75
2022-12-09T00:09:34.021Z,102145.44
2022-12-09T00:12:02.538Z,102140.13
2022-12-09T00:14:31.045Z,102141.94
2022-12-09T00:16:59.653Z,102151.69
2022-12-09T00:19:28.037Z,102156.13
2022-12-09T00:21:56.329Z,102158.75
2022-12-09T00:24:24.640Z,102156.91
2022-12-09T00:26:53.040Z,102147.16
2022-12-09T00:29:21.501Z,102149.88
2022-12-09T00:31:49.914Z,102151.75
2022-12-09T00:34:18.908Z,102157.97
2022-12-09T00:36:47.690Z,102161.56
2022-12-09T00:39:16.305Z,102158.06
2022-12-09T00:41:44.868Z,102148.31
2022-12-09T00:44:14.320Z,102141.22
2022-12-09T00:46:42.739Z,102141.28
2022-12-09T00:49:12.701Z,102144.88
2022-12-09T00:51:41.333Z,102144.00
2022-12-09T00:54:09.827Z,102144.94
2022-12-09T00:56:38.696Z,102152.00
2022-12-09T00:59:07.108Z,102145.78
2022-12-09T01:01:35.817Z,102141.41
2022-12-09T01:04:09.324Z,102137.88
2022-12-09T01:06:38.071Z,102129.88
2022-12-09T01:09:06.939Z,102122.81
2022-12-09T01:11:37.768Z,102115.75
2022-12-09T01:14:06.231Z,102112.19
2022-12-09T01:16:35.832Z,102111.31
2022-12-09T01:19:08.611Z,102103.34
2022-12-09T01:21:37.557Z,102097.19
2022-12-09T01:24:11.605Z,102108.69
2022-12-09T01:26:40.446Z,102113.13
2022-12-09T01:29:09.125Z,102114.00
2022-12-09T01:31:37.636Z,102092.81
2022-12-09T01:34:06.531Z,102096.41
2022-12-09T01:36:35.069Z,102099.94
2022-12-09T01:39:03.478Z,102093.78
2022-12-09T01:41:31.873Z,102091.16
2022-12-09T01:44:23.783Z,102088.53
2022-12-09T01:46:57.494Z,102070.84
2022-12-09T01:49:48.872Z,102074.38
2022-12-09T01:52:25.052Z,102069.13
2022-12-09T01:54:54.189Z,102072.72
2022-12-09T01:57:22.796Z,102082.50
2022-12-09T01:59:51.306Z,102085.16
2022-12-09T02:02:21.452Z,102096.69
2022-12-09T02:04:51.711Z,102084.31
2022-12-09T02:07:20.519Z,102097.59
2022-12-09T02:09:56.627Z,102086.97
2022-12-09T02:12:53.908Z,102087.88
2022-12-09T02:15:46.167Z,102082.59
2022-12-09T02:18:37.939Z,102073.75
2022-12-09T02:21:13.748Z,102080.84
2022-12-09T02:23:54.923Z,102082.63
2022-12-09T02:26:38.042Z,102077.38
2022-12-09T02:29:31.315Z,102081.84
2022-12-09T02:32:14.559Z,102074.81
2022-12-09T02:34:49.294Z,102075.75
2022-12-09T02:37:21.353Z,102078.47
2022-12-09T02:40:09.649Z,102078.47
2022-12-09T02:42:40.655Z,102074.06
2022-12-09T02:45:11.848Z,102073.19
2022-12-09T02:47:44.227Z,102067.00
2022-12-09T02:50:16.261Z,102066.16
2022-12-09T02:52:46.238Z,102062.69
2022-12-09T02:55:18.044Z,102062.69
2022-12-09T02:57:46.727Z,102067.06
2022-12-09T03:00:16.485Z,102069.72
2022-12-09T03:02:52.402Z,102073.28
2022-12-09T03:05:35.437Z,102062.66
2022-12-09T03:08:25.551Z,102060.00
2022-12-09T03:11:05.771Z,102059.09
2022-12-09T03:14:00.907Z,102058.19
2022-12-09T03:16:45.614Z,102060.81
2022-12-09T03:19:32.007Z,102056.41
2022-12-09T03:22:06.684Z,102044.00
2022-12-09T03:24:40.693Z,102041.38
2022-12-09T03:27:13.739Z,102047.56
2022-12-09T03:29:46.799Z,102043.16
2022-12-09T03:32:19.606Z,102053.78
2022-12-09T03:34:52.055Z,102057.34
2022-12-09T03:37:22.545Z,102047.56
2022-12-09T03:39:52.448Z,102049.34
2022-12-09T03:42:27.843Z,102041.38
2022-12-09T03:45:08.925Z,102044.91
2022-12-09T03:47:38.348Z,102042.25
2022-12-09T03:50:09.107Z,102052.88
2022-12-09T03:52:44.299Z,102051.09
2022-12-09T03:55:31.615Z,102050.19
2022-12-09T03:58:04.349Z,102051.03
2022-12-09T04:00:32.919Z,102053.69
2022-12-09T04:03:01.787Z,102055.47
2022-12-09T04:05:30.200Z,102067.84
2022-12-09T04:07:58.897Z,102066.94
2022-12-09T04:10:27.661Z,102061.59
2022-12-09T04:12:56.436Z,102059.84
2022-12-09T04:15:25.202Z,102072.22
2022-12-09T04:17:54.063Z,102073.97
2022-12-09T04:20:22.611Z,102078.38
2022-12-09T04:22:51.102Z,102076.66
2022-12-09T04:25:19.507Z,102081.94
2022-12-09T04:27:47.995Z,102069.50
2022-12-09T04:30:16.600Z,102066.03
2022-12-09T04:32:45.326Z,102074.94
2022-12-09T04:35:13.838Z,102088.19
2022-12-09T04:37:42.134Z,102089.06
2022-12-09T04:40:11.307Z,102090.78
2022-12-09T04:42:40.437Z,102095.25
2022-12-09T04:45:09.933Z,102091.72
2022-12-09T04:47:38.330Z,102076.72
2022-12-09T04:50:07.783Z,102058.97
2022-12-09T04:52:36.769Z,102066.03
2022-12-09T04:55:05.609Z,102074.91
2022-12-09T04:57:34.157Z,102081.94
2022-12-09T05:00:03.067Z,102094.28
2022-12-09T05:02:31.582Z,102077.50
2022-12-09T05:05:02.876Z,102083.69
2022-12-09T05:07:32.292Z,102089.84
2022-12-09T05:10:01.370Z,102086.28
2022-12-09T05:12:29.772Z,102096.91
2022-12-09T05:14:59.666Z,102095.13
2022-12-09T05:17:28.403Z,102079.19
2022-12-09T05:19:56.973Z,102083.53
2022-12-09T05:22:25.548Z,102086.22
2022-12-09T05:24:54.196Z,102091.50
2022-12-09T05:27:23.974Z,102095.94
2022-12-09T05:29:52.551Z,102101.31
2022-12-09T05:32:20.942Z,102104.91
2022-12-09T05:34:50.145Z,102099.63
2022-12-09T05:37:18.835Z,102104.97
2022-12-09T05:39:47.127Z,102112.97
2022-12-09T05:42:15.452Z,102121.81
2022-12-09T05:44:43.838Z,102129.78
2022-12-09T05:47:12.174Z,102133.28
2022-12-09T05:49:40.747Z,102130.63
2022-12-09T05:52:11.049Z,102133.28
2022-12-09T05:54:40.028Z,102130.63
2022-12-09T05:57:09.309Z,102135.94
2022-12-09T05:59:38.187Z,102135.91
2022-12-09T06:02:10.022Z,102137.72
2022-12-09T06:04:39.277Z,102151.03
2022-12-09T06:07:07.924Z,102146.59
2022-12-09T06:09:36.459Z,102152.81
2022-12-09T06:12:06.039Z,102147.53
2022-12-09T06:14:34.829Z,102154.59
2022-12-09T06:17:04.056Z,102158.09
2022-12-09T06:19:33.369Z,102153.69
2022-12-09T06:22:02.052Z,102153.66
2022-12-09T06:24:30.832Z,102146.59
2022-12-09T06:26:59.605Z,102155.44
2022-12-09T06:29:28.223Z,102161.59
2022-12-09T06:31:56.898Z,102158.94
2022-12-09T06:34:25.735Z,102160.72
2022-12-09T06:36:54.863Z,102163.31
2022-12-09T06:39:23.443Z,102160.69
2022-12-09T06:41:52.141Z,102163.38
2022-12-09T06:44:23.753Z,102169.56
2022-12-09T06:46:53.034Z,102185.50
2022-12-09T06:49:21.671Z,102180.22
2022-12-09T06:51:50.606Z,102181.97
2022-12-09T06:54:19.344Z,102178.44
2022-12-09T06:56:48.374Z,102186.44
2022-12-09T06:59:17.497Z,102183.75
2022-12-09T07:01:46.925Z,102178.44
2022-12-09T07:04:16.695Z,102174.91
2022-12-09T07:06:47.089Z,102170.44
2022-12-09T07:09:21.454Z,102169.56
2022-12-09T07:11:50.339Z,102165.16
2022-12-09T07:14:20.122Z,102174.03
2022-12-09T07:16:48.982Z,102172.28
2022-12-09T07:19:23.401Z,102181.13
2022-12-09T07:21:53.210Z,102181.13
2022-12-09T07:24:22.011Z,102179.34
2022-12-09T07:26:53.881Z,102183.78
2022-12-09T07:29:22.387Z,102175.81
2022-12-09T07:31:51.318Z,102173.16
2022-12-09T07:34:20.250Z,102171.38
2022-12-09T07:36:48.823Z,102168.72
2022-12-09T07:39:19.887Z,102171.38
2022-12-09T07:42:00.197Z,102179.31
2022-12-09T07:44:29.636Z,102177.56
2022-12-09T07:46:59.387Z,102169.63
2022-12-09T07:49:28.241Z,102169.66
2022-12-09T07:51:56.719Z,102170.50
2022-12-09T07:54:25.275Z,102168.75
2022-12-09T07:56:53.717Z,102166.09
2022-12-09T07:59:22.370Z,102164.38
2022-12-09T08:01:51.032Z,102168.81
2022-12-09T08:04:19.903Z,102172.38
2022-12-09T08:06:48.522Z,102170.63
2022-12-09T08:09:17.609Z,102171.50
2022-12-09T08:11:46.312Z,102167.09
2022-12-09T08:14:15.113Z,102166.25
2022-12-09T08:16:44.712Z,102161.84
2022-12-09T08:19:14.559Z,102163.59
2022-12-09T08:21:45.563Z,102165.38
2022-12-09T08:24:17.148Z,102168.03
2022-12-09T08:26:45.918Z,102161.81
2022-12-09T08:29:15.266Z,102165.34
2022-12-09T08:31:45.206Z,102162.66
2022-12-09T08:34:14.585Z,102159.13
2022-12-09T08:36:44.303Z,102161.75
2022-12-09T08:39:14.885Z,102155.59
2022-12-09T08:41:44.870Z,102155.59
2022-12-09T08:44:17.960Z,102157.41
2022-12-09T08:46:49.275Z,102159.22
2022-12-09T08:49:21.108Z,102160.13
2022-12-09T08:51:52.015Z,102166.28
2022-12-09T08:54:20.866Z,102167.22
2022-12-09T08:56:56.408Z,102166.31
2022-12-09T08:59:26.166Z,102170.81
2022-12-09T09:01:55.503Z,102170.81
2022-12-09T09:04:24.481Z,102173.50
2022-12-09T09:06:53.937Z,102176.13
2022-12-09T09:09:23.783Z,102175.28
2022-12-09T09:11:52.775Z,102175.34
2022-12-09T09:14:21.368Z,102175.38
2022-12-09T09:16:50.723Z,102175.41
2022-12-09T09:19:22.645Z,102172.81
2022-12-09T09:21:51.684Z,102172.78
2022-12-09T09:24:22.931Z,102171.09
2022-12-09T09:26:54.039Z,102170.19
2022-12-09T09:29:24.741Z,102175.50
2022-12-09T09:31:56.568Z,102180.84
2022-12-09T09:34:27.237Z,102169.31
2022-12-09T09:36:57.855Z,102158.72
2022-12-09T09:39:26.722Z,102161.38
2022-12-09T09:42:08.725Z,102149.88
2022-12-09T09:44:48.751Z,102149.03
2022-12-09T09:47:38.803Z,102149.94
2022-12-09T09:50:26.603Z,102140.28
2022-12-09T09:52:57.577Z,102136.75
2022-12-09T09:55:33.907Z,102133.22
2022-12-09T09:58:23.838Z,102141.19
2022-12-09T10:00:57.504Z,102148.28
2022-12-09T10:03:52.405Z,102140.31
2022-12-09T10:06:39.550Z,102135.91
2022-12-09T10:09:42.451Z,102128.84
2022-12-09T10:12:16.742Z,102137.66
2022-12-09T10:15:11.073Z,102138.53
2022-12-09T10:17:45.901Z,102136.75
2022-12-09T10:20:28.610Z,102133.22
2022-12-09T10:23:02.034Z,102128.81
2022-12-09T10:25:34.632Z,102126.16
2022-12-09T10:28:19.452Z,102120.84
2022-12-09T10:30:49.439Z,102119.94
2022-12-09T10:33:22.463Z,102125.25
2022-12-09T10:35:51.264Z,102129.66
2022-12-09T10:38:22.890Z,102135.00
2022-12-09T10:41:03.703Z,102140.28
2022-12-09T10:43:43.283Z,102133.25
2022-12-09T10:46:19.205Z,102143.84
2022-12-09T10:48:49.295Z,102155.34
2022-12-09T10:51:22.906Z,102144.72
2022-12-09T10:54:06.954Z,102137.69
2022-12-09T10:57:00.125Z,102157.13
2022-12-09T10:59:31.427Z,102155.38
2022-12-09T11:02:22.203Z,102154.50
2022-12-09T11:04:51.873Z,102164.22
2022-12-09T11:07:24.612Z,102155.41
2022-12-09T11:10:08.887Z,102154.50
2022-12-09T11:12:41.303Z,102156.28
2022-12-09T11:15:13.607Z,102150.09
2022-12-09T11:17:56.875Z,102152.75
2022-12-09T11:20:31.641Z,102155.41
2022-12-09T11:23:07.631Z,102152.78
2022-12-09T11:25:38.533Z,102151.88
2022-12-09T11:28:36.771Z,102149.22
2022-12-09T11:31:29.570Z,102145.72
2022-12-09T11:34:03.587Z,102146.56
2022-12-09T11:36:36.926Z,102150.13
2022-12-09T11:39:25.402Z,102138.63
2022-12-09T11:42:19.422Z,102142.16
2022-12-09T11:45:45.239Z,102150.13
2022-12-09T11:48:36.207Z,102150.13
2022-12-09T11:51:07.958Z,102143.09
2022-12-09T11:53:41.978Z,102153.72
2022-12-09T11:56:24.087Z,102143.13
2022-12-09T11:58:57.864Z,102146.66
2022-12-09T12:01:31.289Z,102140.47
2022-12-09T12:04:09.200Z,102136.94
2022-12-09T12:06:51.956Z,102138.72
2022-12-09T12:09:31.159Z,102142.22
2022-12-09T12:12:23.768Z,102129.88
2022-12-09T12:14:52.118Z,102129.88
2022-12-09T12:17:44.465Z,102132.53
2022-12-09T12:20:16.445Z,102132.50
2022-12-09T12:23:10.679Z,102129.00
2022-12-09T12:26:05.078Z,102119.28
2022-12-09T12:28:57.336Z,102115.78
2022-12-09T12:31:48.484Z,102109.59
2022-12-09T12:34:43.966Z,102117.56
2022-12-09T12:37:40.894Z,102112.25
2022-12-09T12:40:34.526Z,102114.94
2022-12-09T12:43:42.439Z,102108.78
2022-12-09T12:46:32.198Z,102107.91
2022-12-09T12:49:22.008Z,102114.09
2022-12-09T12:52:54.896Z,102106.16
2022-12-09T12:55:37.023Z,102104.41
2022-12-09T12:58:18.198Z,102115.94
2022-12-09T13:01:14.236Z,102110.66
2022-12-09T13:03:55.676Z,102118.59
2022-12-09T13:07:03.312Z,102118.63
2022-12-09T13:09:43.318Z,102121.25
2022-12-09T13:12:45.182Z,102126.56
2022-12-09T13:15:16.564Z,102113.38
2022-12-09T13:17:48.439Z,102117.78
2022-12-09T13:20:32.439Z,102116.88
2022-12-09T13:23:16.409Z,102115.16
2022-12-09T13:26:21.864Z,102116.91
2022-12-09T13:29:14.018Z,102111.59
2022-12-09T13:31:59.428Z,102109.84
2022-12-09T13:34:55.595Z,102104.59
2022-12-09T13:37:56.868Z,102108.09
2022-12-09T13:40:38.679Z,102112.53
2022-12-09T13:43:15.798Z,102117.84
2022-12-09T13:45:44.229Z,102124.91
2022-12-09T13:48:17.092Z,102114.34
2022-12-09T13:50:58.358Z,102117.00
2022-12-09T13:53:45.705Z,102123.16
2022-12-09T13:56:17.595Z,102111.72
2022-12-09T13:59:27.134Z,102115.25
2022-12-09T14:02:15.964Z,102109.94
2022-12-09T14:04:59.458Z,102108.19
2022-12-09T14:07:37.053Z,102102.06
2022-12-09T14:10:06.832Z,102095.91
2022-12-09T14:12:38.386Z,102099.44
2022-12-09T14:15:29.280Z,102096.78
2022-12-09T14:18:02.841Z,102104.75
2022-12-09T14:20:36.279Z,102110.00
2022-12-09T14:23:13.558Z,102095.03
2022-12-09T14:26:01.189Z,102103.88
2022-12-09T14:28:35.302Z,102094.19
2022-12-09T14:31:08.666Z,102100.34
2022-12-09T14:33:45.529Z,102105.59
2022-12-09T14:36:16.601Z,102106.50
2022-12-09T14:39:25.883Z,102110.00
2022-12-09T14:42:09.404Z,102115.28
2022-12-09T14:44:43.594Z,102115.28
2022-12-09T14:47:27.537Z,102109.97
2022-12-09T14:49:57.734Z,102119.66
2022-12-09T14:52:33.889Z,102110.88
2022-12-09T14:55:07.945Z,102108.22
2022-12-09T14:57:45.089Z,102105.56
2022-12-09T15:00:34.851Z,102107.34
2022-12-09T15:03:39.455Z,102117.00
2022-12-09T15:06:14.298Z,102120.53
2022-12-09T15:08:43.722Z,102114.38
2022-12-09T15:11:20.914Z,102116.09
2022-12-09T15:13:52.582Z,102119.63
2022-12-09T15:16:24.982Z,102117.88
2022-12-09T15:18:55.717Z,102116.09
2022-12-09T15:21:33.891Z,102117.00
2022-12-09T15:24:02.628Z,102115.22
2022-12-09T15:26:33.879Z,102111.69
2022-12-09T15:29:05.995Z,102111.69
2022-12-09T15:31:36.119Z,102112.53
2022-12-09T15:34:26.175Z,102113.41
2022-12-09T15:37:05.281Z,102116.94
2022-12-09T15:40:09.250Z,102123.09
2022-12-09T15:42:41.450Z,102123.94
2022-12-09T15:45:16.722Z,102131.88
2022-12-09T15:47:51.503Z,102119.53
2022-12-09T15:50:37.065Z,102119.56
2022-12-09T15:53:29.811Z,102124.84
2022-12-09T15:56:05.665Z,102125.72
2022-12-09T15:58:41.255Z,102126.59
2022-12-09T16:01:10.366Z,102127.47
2022-12-09T16:03:39.664Z,102128.34
2022-12-09T16:06:10.259Z,102121.31
2022-12-09T16:08:41.520Z,102116.91
2022-12-09T16:11:10.904Z,102109.00
2022-12-09T16:13:59.483Z,102104.59
2022-12-09T16:16:43.235Z,102105.47
2022-12-09T16:19:36.936Z,102103.72
2022-12-09T16:22:18.200Z,102109.91
2022-12-09T16:25:13.654Z,102108.13
2022-12-09T16:27:41.196Z,102109.03
2022-12-09T16:30:18.921Z,102109.91
2022-12-09T16:32:51.663Z,102120.47
2022-12-09T16:35:25.229Z,102125.78
2022-12-09T16:37:59.805Z,102126.66
2022-12-09T16:40:29.406Z,102145.16
2022-12-09T16:43:17.879Z,102146.94
2022-12-09T16:45:50.267Z,102147.81
2022-12-09T16:48:20.273Z,102149.59
2022-12-09T16:51:13.776Z,102157.53
2022-12-09T16:53:53.110Z,102161.94
2022-12-09T16:56:24.125Z,102163.72
2022-12-09T16:58:53.244Z,102165.47
2022-12-09T17:01:24.496Z,102167.25
2022-12-09T17:04:18.950Z,102169.91
2022-12-09T17:06:47.487Z,102171.66
2022-12-09T17:09:16.069Z,102172.56
2022-12-09T17:11:48.803Z,102174.31
2022-12-09T17:14:18.854Z,102178.75
2022-12-09T17:16:47.378Z,102180.50
2022-12-09T17:19:16.054Z,102181.38
2022-12-09T17:21:44.441Z,102187.53
2022-12-09T17:24:13.031Z,102196.34
2022-12-09T17:26:41.701Z,102191.97
2022-12-09T17:29:10.366Z,102190.19
2022-12-09T17:31:38.713Z,102187.56
2022-12-09T17:34:07.169Z,102195.47
2022-12-09T17:36:35.491Z,102191.06
2022-12-09T17:39:06.404Z,102191.06
2022-12-09T17:41:34.950Z,102185.75
2022-12-09T17:44:03.329Z,102177.81
2022-12-09T17:46:31.844Z,102186.63
2022-12-09T17:49:03.480Z,102182.22
2022-12-09T17:51:36.001Z,102177.78
2022-12-09T17:54:05.297Z,102182.19
2022-12-09T17:56:33.699Z,102181.31
2022-12-09T17:59:06.080Z,102189.28
2022-12-09T18:01:37.089Z,102183.09
2022-12-09T18:04:10.547Z,102182.19
2022-12-09T18:06:44.190Z,102181.31
2022-12-09T18:09:16.399Z,102191.00
2022-12-09T18:11:45.400Z,102190.13
2022-12-09T18:14:13.884Z,102189.22
2022-12-09T18:16:42.505Z,102190.97
2022-12-09T18:19:17.559Z,102186.53
2022-12-09T18:21:46.570Z,102182.13
2022-12-09T18:24:15.004Z,102176.81
2022-12-09T18:26:44.277Z,102171.47
2022-12-09T18:29:14.045Z,102174.13
2022-12-09T18:31:42.534Z,102168.78
2022-12-09T18:34:10.809Z,102167.91
2022-12-09T18:36:39.594Z,102159.03
2022-12-09T18:39:08.423Z,102151.03
2022-12-09T18:41:36.825Z,102151.00
2022-12-09T18:44:07.974Z,102156.28
2022-12-09T18:46:39.562Z,102158.00
2022-12-09T18:49:20.429Z,102145.56
2022-12-09T18:51:50.378Z,102152.56
2022-12-09T18:54:21.920Z,102150.72
2022-12-09T18:56:50.863Z,102139.16
2022-12-09T18:59:20.386Z,102142.63
2022-12-09T19:01:49.586Z,102140.75
2022-12-09T19:04:21.084Z,102138.03
2022-12-09T19:06:51.323Z,102121.19
2022-12-09T19:09:22.887Z,102115.88
2022-12-09T19:11:53.120Z,102113.19
2022-12-09T19:14:23.621Z,102114.06
2022-12-09T19:16:53.541Z,102106.06
2022-12-09T19:19:24.449Z,102096.34
2022-12-09T19:21:54.137Z,102088.38
2022-12-09T19:24:26.526Z,102083.06
2022-12-09T19:26:57.565Z,102078.53
2022-12-09T19:29:27.549Z,102086.44
2022-12-09T19:31:58.122Z,102082.03
2022-12-09T19:34:28.903Z,102073.16
2022-12-09T19:36:59.868Z,102065.03
2022-12-09T19:39:32.152Z,102053.28
2022-12-09T19:42:01.064Z,102043.34
2022-12-09T19:45:00.823Z,102041.50
2022-12-09T19:47:18.961Z,102027.34
2022-12-09T19:49:47.219Z,102027.28
2022-12-09T19:52:15.597Z,102021.00
2022-12-09T19:54:43.925Z,102014.75
2022-12-09T19:57:12.283Z,102015.59
2022-12-09T19:59:40.588Z,102011.16
2022-12-09T20:02:12.858Z,102012.81
2022-12-09T20:04:49.933Z,102002.13
2022-12-09T20:07:19.383Z,101999.28
2022-12-09T20:09:47.747Z,101992.84
2022-12-09T20:12:16.205Z,101986.41
2022-12-09T20:14:45.184Z,101981.72
2022-12-09T20:17:13.498Z,101976.09
2022-12-09T20:19:41.836Z,101957.28
2022-12-09T20:22:10.294Z,101966.09
2022-12-09T20:24:38.764Z,101959.00
2022-12-09T20:27:07.224Z,101963.34
2022-12-09T20:29:38.010Z,101954.41
2022-12-09T20:32:09.289Z,101955.28
2022-12-09T20:34:37.673Z,101943.88
2022-12-09T20:37:06.629Z,101945.78
2022-12-09T20:39:35.104Z,101939.66
2022-12-09T20:42:03.570Z,101928.16
2022-12-09T20:44:33.343Z,101920.28
2022-12-09T20:47:01.664Z,101919.44
2022-12-09T20:49:31.262Z,101916.69
2022-12-09T20:51:59.746Z,101913.94
2022-12-09T20:54:28.185Z,101907.75
2022-12-09T20:56:56.663Z,101901.56
2022-12-09T20:59:25.151Z,101906.00
2022-12-09T21:01:55.099Z,101905.97
2022-12-09T21:04:24.171Z,101905.91
2022-12-09T21:06:52.844Z,101890.81
2022-12-09T21:09:23.784Z,101881.72
2022-12-09T21:11:52.234Z,101876.16
2022-12-09T21:14:21.631Z,101881.31
2022-12-09T21:16:53.250Z,101869.75
2022-12-09T21:19:25.833Z,101867.00
2022-12-09T21:21:55.405Z,101858.91
2022-12-09T21:24:25.664Z,101856.09
2022-12-09T21:26:56.339Z,101858.69
2022-12-09T21:29:31.557Z,101852.38
2022-12-09T21:32:01.229Z,101855.00
2022-12-09T21:34:29.641Z,101849.78
2022-12-09T21:36:58.234Z,101841.78
2022-12-09T21:39:27.277Z,101834.66
2022-12-09T21:41:56.146Z,101838.09
2022-12-09T21:44:26.424Z,101835.38
2022-12-09T21:46:55.100Z,101839.66
2022-12-09T21:49:23.704Z,101843.25
2022-12-09T21:51:52.223Z,101842.56
2022-12-09T21:54:20.539Z,101840.00
2022-12-09T21:56:49.003Z,101826.00
2022-12-09T21:59:17.423Z,101815.44
2022-12-09T22:01:45.857Z,101806.59
2022-12-09T22:04:17.387Z,101810.97
2022-12-09T22:06:50.947Z,101810.00
2022-12-09T22:09:21.984Z,101808.34
2022-12-09T22:11:50.594Z,101806.53
2022-12-09T22:14:19.043Z,101804.03
2022-12-09T22:16:47.578Z,101800.47
2022-12-09T22:19:21.834Z,101790.72
2022-12-09T22:21:50.805Z,101786.28
2022-12-09T22:24:20.162Z,101775.69
2022-12-09T22:26:48.818Z,101772.16
2022-12-09T22:29:18.639Z,101768.53
2022-12-09T22:31:47.759Z,101763.13
2022-12-09T22:34:19.173Z,101757.75
2022-12-09T22:36:49.381Z,101755.91
2022-12-09T22:39:20.504Z,101755.84
2022-12-09T22:41:49.498Z,101754.00
2022-12-09T22:44:20.807Z,101758.50
2022-12-09T22:46:49.548Z,101761.22
2022-12-09T22:49:18.777Z,101760.25
2022-12-09T22:51:47.917Z,101751.38
2022-12-09T22:54:16.553Z,101751.44
2022-12-09T22:56:45.824Z,101741.59
2022-12-09T22:59:15.022Z,101750.47
2022-12-09T23:01:50.540Z,101745.09
2022-12-09T23:04:24.523Z,101744.19
2022-12-09T23:06:53.124Z,101746.00
2022-12-09T23:09:26.258Z,101737.09
2022-12-09T23:11:54.748Z,101733.56
2022-12-09T23:14:23.244Z,101716.66
2022-12-09T23:16:51.593Z,101710.34
2022-12-09T23:19:20.219Z,101704.16
2022-12-09T23:21:48.708Z,101699.75
2022-12-09T23:24:24.330Z,101698.84
2022-12-09T23:26:55.629Z,101691.78
2022-12-09T23:29:24.067Z,101694.47
2022-12-09T23:31:52.562Z,101688.38
2022-12-09T23:34:21.123Z,101681.28
2022-12-09T23:36:49.502Z,101676.03
2022-12-09T23:39:19.854Z,101674.34
2022-12-09T23:41:48.863Z,101682.41
2022-12-09T23:44:19.424Z,101681.53
2022-12-09T23:46:47.882Z,101670.88
2022-12-09T23:49:16.716Z,101672.69
2022-12-09T23:51:45.070Z,101670.88
2022-12-09T23:54:15.504Z,101678.88
2022-12-09T23:56:51.742Z,101680.69
2022-12-09T23:59:22.464Z,101670.13
